Bergama, Turkey
Current Conditions -  °F | °C
As of 2:50 PM on Monday 24 Nov 2014 (Local Time) from LTFD Reporting Station
Broken Clouds Broken Clouds  
Wind Chill: 52°   Ceiling: 3000
Heat Index: 52°   Visibility: 6mi
Dew Point: 39°   Wind: 13mph
Humidity: 62%   Direction: 60°ENE
Pressure: 30.18"   Gusts: NA
Location:  39.13°N, 27.17°E
Report Text: LTFD 241150Z 06011KT 9999 BKN030 11/04 Q1022
Loading
Personal Weather Stations






























Interactive Weather Map New forecast layout! Learn more

10-Day Weather Forecast

Advertisements
Track Severe Weather on mobile